YAT weather

Attawapiskat Airport
Attawapiskat, Ontario, Canada

Public forecast

Using degrees Celsius for public forecast. Weather courtesy of forecast.io.

Current aviation weather report (METAR) for Attawapiskat Airport

Retrieved 2020/08/04 16:00 UTC (41 minutes ago):

CYAT 041600Z AUTO 05009KT 330V080 9SM CLR 17/11 A3017 RMK SLP217

Aviation forecast (TAF) for Attawapiskat Airport

Retrieved 2020/08/04 15:00 UTC (2 hours ago):

TAF CYAT 041439Z 0415/0419 32006KT P6SM FEW010 SCT060 TEMPO 0415/0419 BKN010 BECMG 0415/0417 05009KT RMK FCST BASED ON AUTO OBS NXT FCST WILL BE ISSUED AT 050845Z